Time,TemperatureF,DewpointF,PressureIn,WindDirection,WindDirectionDegrees,WindSpeedMPH,WindSpeedGustMPH,Humidity,HourlyPrecipIn,Conditions,Clouds,dailyrainin,SoftwareType,DateUTC
2013-01-13 00:00:00,43.3,41.4,30.14,East,90,0.0,0.0,93,0.00,,---,0.00,VWS V14.01,2013-01-13 05:00:00,
2013-01-13 00:30:00,42.8,40.9,30.14,East,90,0.0,1.0,93,0.00,,---,0.00,VWS V14.01,2013-01-13 05:30:00,
2013-01-13 01:00:00,42.5,40.6,30.13,East,90,0.0,1.0,93,0.00,,---,0.00,VWS V14.01,2013-01-13 06:00:00,
2013-01-13 01:30:00,42.4,40.8,30.12,East,90,0.0,0.0,94,0.00,,---,0.00,VWS V14.01,2013-01-13 06:30:00,
2013-01-13 02:00:00,42.4,40.8,30.13,East,90,0.0,1.0,94,0.00,,---,0.00,VWS V14.01,2013-01-13 07:00:00,
2013-01-13 02:30:00,43.3,42.0,30.12,West,270,0.0,2.0,95,0.00,,---,0.00,VWS V14.01,2013-01-13 07:30:00,
2013-01-13 03:00:00,43.4,42.3,30.12,West,270,0.0,1.0,96,0.00,,---,0.00,VWS V14.01,2013-01-13 08:00:00,
2013-01-13 03:30:00,43.3,42.2,30.11,WSW,248,0.0,3.0,96,0.00,,---,0.00,VWS V14.01,2013-01-13 08:30:00,
2013-01-13 04:00:00,43.2,42.1,30.10,WSW,248,0.0,1.0,96,0.00,,---,0.00,VWS V14.01,2013-01-13 09:00:00,
2013-01-13 04:30:00,43.2,42.1,30.10,WSW,248,0.0,1.0,96,0.00,,---,0.00,VWS V14.01,2013-01-13 09:30:00,
2013-01-13 05:00:00,43.2,42.1,30.08,ESE,112,0.0,2.0,96,0.00,,---,0.00,VWS V14.01,2013-01-13 10:00:00,
2013-01-13 05:30:00,43.3,42.2,30.09,SE,135,0.0,2.0,96,0.00,,---,0.00,VWS V14.01,2013-01-13 10:30:00,
2013-01-13 06:00:00,43.5,42.7,30.09,SE,135,0.0,2.0,97,0.00,,---,0.00,VWS V14.01,2013-01-13 11:00:00,
2013-01-13 06:30:00,43.6,42.8,30.09,ESE,112,0.0,2.0,97,0.00,,---,0.00,VWS V14.01,2013-01-13 11:30:00,
2013-01-13 07:00:00,43.6,42.8,30.10,ESE,112,0.0,3.0,97,0.00,,---,0.00,VWS V14.01,2013-01-13 12:00:00,
2013-01-13 07:30:00,43.6,42.8,30.10,SE,135,0.0,2.0,97,0.00,,---,0.00,VWS V14.01,2013-01-13 12:30:00,
2013-01-13 08:00:00,43.8,43.0,30.10,ESE,112,0.0,3.0,97,0.00,,---,0.00,VWS V14.01,2013-01-13 13:00:00,
2013-01-13 08:30:00,44.0,43.2,30.11,ESE,112,0.0,2.0,97,0.00,,---,0.00,VWS V14.01,2013-01-13 13:30:00,
2013-01-13 09:00:00,44.4,43.6,30.12,ESE,112,0.0,1.0,97,0.00,,---,0.00,VWS V14.01,2013-01-13 14:00:00,
2013-01-13 09:30:00,45.2,44.4,30.11,ESE,112,1.0,5.0,97,0.00,,---,0.00,VWS V14.01,2013-01-13 14:30:00,
2013-01-13 10:00:00,46.0,45.2,30.11,East,90,0.0,3.0,97,0.00,,---,0.00,VWS V14.01,2013-01-13 15:00:00,
2013-01-13 10:30:00,46.9,46.4,30.14,SSW,202,0.0,2.0,98,0.00,,---,0.00,VWS V14.01,2013-01-13 15:30:00,
2013-01-13 11:00:00,47.8,47.3,30.13,West,270,0.0,2.0,98,0.00,,---,0.00,VWS V14.01,2013-01-13 16:00:00,
2013-01-13 11:30:00,48.2,47.7,30.10,ESE,112,1.0,4.0,98,0.00,,---,0.00,VWS V14.01,2013-01-13 16:30:00,
2013-01-13 12:00:00,47.8,47.0,30.08,ESE,112,1.0,5.0,97,0.00,,---,0.00,VWS V14.01,2013-01-13 17:00:00,
2013-01-13 12:30:00,48.0,47.2,30.06,East,90,1.0,4.0,97,0.00,,---,0.00,VWS V14.01,2013-01-13 17:30:00,
2013-01-13 13:00:00,47.5,46.7,30.06,ENE,68,1.0,3.0,97,0.00,,---,0.00,VWS V14.01,2013-01-13 18:00:00,
2013-01-13 13:30:00,47.5,46.7,30.05,ESE,112,1.0,4.0,97,0.00,,---,0.00,VWS V14.01,2013-01-13 18:30:00,
2013-01-13 14:00:00,47.7,46.9,30.05,East,90,1.0,3.0,97,0.00,,---,0.00,VWS V14.01,2013-01-13 19:00:00,
2013-01-13 14:30:00,47.8,47.0,30.05,ESE,112,1.0,4.0,97,0.00,,---,0.00,VWS V14.01,2013-01-13 19:30:00,
2013-01-13 15:00:00,48.0,47.2,30.05,ESE,112,1.0,5.0,97,0.00,,---,0.00,VWS V14.01,2013-01-13 20:00:00,
2013-01-13 15:30:00,48.2,47.4,30.05,East,90,1.0,4.0,97,0.00,,---,0.00,VWS V14.01,2013-01-13 20:30:00,
2013-01-13 16:00:00,48.3,47.5,30.04,ESE,112,1.0,6.0,97,0.00,,---,0.00,VWS V14.01,2013-01-13 21:00:00,
2013-01-13 16:30:00,48.5,47.7,30.03,East,90,0.0,4.0,97,0.00,,---,0.00,VWS V14.01,2013-01-13 21:30:00,
2013-01-13 17:00:00,48.6,47.8,30.03,ESE,112,0.0,4.0,97,0.00,,---,0.00,VWS V14.01,2013-01-13 22:00:00,
2013-01-13 17:30:00,48.8,48.0,30.04,East,90,0.0,2.0,97,0.00,,---,0.00,VWS V14.01,2013-01-13 22:30:00,
2013-01-13 18:00:00,48.8,48.0,30.04,ENE,68,0.0,1.0,97,0.01,,---,0.01,VWS V14.01,2013-01-13 23:00:00,
2013-01-13 18:30:00,48.8,48.0,30.04,ENE,68,0.0,1.0,97,0.01,,---,0.01,VWS V14.01,2013-01-13 23:30:00,
2013-01-13 19:00:00,48.8,48.0,30.03,ENE,68,0.0,1.0,97,0.01,,---,0.01,VWS V14.01,2013-01-14 00:00:00,
2013-01-13 19:30:00,48.7,48.2,30.02,ENE,68,0.0,1.0,98,0.00,,---,0.01,VWS V14.01,2013-01-14 00:30:00,
2013-01-13 20:00:00,49.1,48.6,30.01,ENE,68,0.0,2.0,98,0.00,,---,0.01,VWS V14.01,2013-01-14 01:00:00,
2013-01-13 20:30:00,49.2,48.7,30.00,SSE,158,0.0,2.0,98,0.01,,---,0.02,VWS V14.01,2013-01-14 01:30:00,
2013-01-13 21:00:00,49.4,48.9,30.00,SSE,158,0.0,3.0,98,0.01,,---,0.02,VWS V14.01,2013-01-14 02:00:00,
2013-01-13 21:30:00,49.6,49.1,30.00,ESE,112,0.0,2.0,98,0.01,,---,0.02,VWS V14.01,2013-01-14 02:30:00,
2013-01-13 22:00:00,49.6,49.1,29.99,ESE,112,0.0,1.0,98,0.00,,---,0.02,VWS V14.01,2013-01-14 03:00:00,
2013-01-13 22:30:00,49.7,49.2,29.99,ESE,112,0.0,1.0,98,0.00,,---,0.02,VWS V14.01,2013-01-14 03:30:00,
2013-01-13 23:00:00,49.7,49.2,29.99,ESE,112,0.0,0.0,98,0.00,,---,0.02,VWS V14.01,2013-01-14 04:00:00,
2013-01-13 23:30:00,49.6,49.1,29.98,ESE,112,0.0,0.0,98,0.00,,---,0.02,VWS V14.01,2013-01-14 04:30:00,